createdAt,value
2018-12-22T00:00:27.019Z,5.50
2018-12-22T00:02:58.545Z,3.97
2018-12-22T00:05:26.891Z,5.13
2018-12-22T00:07:55.401Z,4.97
2018-12-22T00:10:23.929Z,7.53
2018-12-22T00:12:52.326Z,3.87
2018-12-22T00:15:20.618Z,4.73
2018-12-22T00:17:48.889Z,7.77
2018-12-22T00:20:17.241Z,4.90
2018-12-22T00:22:45.545Z,3.43
2018-12-22T00:25:13.841Z,4.77
2018-12-22T00:27:42.118Z,6.43
2018-12-22T00:30:10.431Z,5.90
2018-12-22T00:32:38.730Z,4.40
2018-12-22T00:35:07.204Z,7.40
2018-12-22T00:37:35.665Z,4.80
2018-12-22T00:40:04.797Z,5.00
2018-12-22T00:42:33.149Z,4.30
2018-12-22T00:45:01.614Z,5.63
2018-12-22T00:47:30.133Z,7.47
2018-12-22T00:49:58.701Z,5.63
2018-12-22T00:52:28.959Z,4.73
2018-12-22T00:54:57.229Z,5.07
2018-12-22T00:57:25.582Z,4.03
2018-12-22T00:59:53.889Z,6.33
2018-12-22T01:02:22.201Z,6.03
2018-12-22T01:04:50.485Z,3.43
2018-12-22T01:07:19.098Z,6.43
2018-12-22T01:09:47.377Z,5.13
2018-12-22T01:12:15.958Z,4.80
2018-12-22T01:14:44.263Z,3.47
2018-12-22T01:17:12.923Z,5.13
2018-12-22T01:19:41.219Z,3.90
2018-12-22T01:22:09.589Z,3.87
2018-12-22T01:24:37.889Z,3.90
2018-12-22T01:27:06.477Z,3.80
2018-12-22T01:29:34.793Z,4.80
2018-12-22T01:32:03.306Z,3.97
2018-12-22T01:34:31.594Z,4.27
2018-12-22T01:37:00.256Z,2.63
2018-12-22T01:39:28.712Z,4.40
2018-12-22T01:41:57.008Z,3.03
2018-12-22T01:44:25.658Z,5.57
2018-12-22T01:46:53.949Z,3.80
2018-12-22T01:49:22.653Z,5.13
2018-12-22T01:51:50.953Z,3.93
2018-12-22T01:54:19.221Z,3.70
2018-12-22T01:56:47.624Z,2.93
2018-12-22T01:59:16.065Z,2.13
2018-12-22T02:01:45.109Z,4.63
2018-12-22T02:04:13.541Z,3.43
2018-12-22T02:06:42.313Z,3.93
2018-12-22T02:09:11.025Z,2.40
2018-12-22T02:11:39.333Z,3.33
2018-12-22T02:14:07.640Z,2.50
2018-12-22T02:16:35.942Z,2.50
2018-12-22T02:19:04.349Z,6.13
2018-12-22T02:21:32.657Z,4.03
2018-12-22T02:24:01.409Z,1.83
2018-12-22T02:26:29.681Z,3.63
2018-12-22T02:28:57.978Z,4.03
2018-12-22T02:31:26.329Z,6.23
2018-12-22T02:33:54.634Z,3.77
2018-12-22T02:36:22.923Z,4.67
2018-12-22T02:38:51.289Z,4.63
2018-12-22T02:41:20.772Z,4.87
2018-12-22T02:43:49.684Z,3.00
2018-12-22T02:46:17.991Z,4.30
2018-12-22T02:48:46.635Z,4.37
2018-12-22T02:51:15.202Z,3.83
2018-12-22T02:53:43.717Z,3.23
2018-12-22T02:56:12.169Z,4.83
2018-12-22T02:58:40.673Z,5.00
2018-12-22T03:01:09.142Z,4.43
2018-12-22T03:03:37.605Z,4.40
2018-12-22T03:06:06.096Z,2.43
2018-12-22T03:08:34.406Z,4.70
2018-12-22T03:11:03.177Z,4.63
2018-12-22T03:13:31.550Z,4.23
2018-12-22T03:16:00.027Z,3.60
2018-12-22T03:18:28.522Z,4.30
2018-12-22T03:20:57.501Z,3.03
2018-12-22T03:23:25.792Z,2.67
2018-12-22T03:25:54.036Z,3.17
2018-12-22T03:28:22.306Z,4.73
2018-12-22T03:30:50.551Z,4.80
2018-12-22T03:33:18.859Z,4.13
2018-12-22T03:35:47.105Z,5.17
2018-12-22T03:38:15.462Z,6.17
2018-12-22T03:40:43.729Z,6.37
2018-12-22T03:43:11.993Z,4.73
2018-12-22T03:45:40.269Z,5.53
2018-12-22T03:48:08.550Z,4.67
2018-12-22T03:50:36.937Z,3.53
2018-12-22T03:53:05.186Z,6.47
2018-12-22T03:55:33.481Z,5.70
2018-12-22T03:58:01.770Z,6.43
2018-12-22T04:00:30.229Z,7.33
2018-12-22T04:02:58.605Z,3.73
2018-12-22T04:05:27.130Z,5.80
2018-12-22T04:07:55.402Z,7.30
2018-12-22T04:10:23.681Z,6.17
2018-12-22T04:12:52.026Z,3.73
2018-12-22T04:15:20.305Z,5.53
2018-12-22T04:17:48.996Z,7.93
2018-12-22T04:20:17.273Z,4.30
2018-12-22T04:22:45.565Z,4.90
2018-12-22T04:25:13.843Z,4.27
2018-12-22T04:27:42.122Z,5.57
2018-12-22T04:30:10.865Z,5.20
2018-12-22T04:32:39.371Z,5.40
2018-12-22T04:35:07.651Z,6.47
2018-12-22T04:37:35.907Z,4.67
2018-12-22T04:40:04.532Z,3.63
2018-12-22T04:42:33.290Z,5.23
2018-12-22T04:45:01.564Z,5.10
2018-12-22T04:47:29.837Z,3.77
2018-12-22T04:49:58.221Z,4.33
2018-12-22T04:52:26.726Z,4.40
2018-12-22T04:54:55.199Z,4.70
2018-12-22T04:57:23.693Z,5.83
2018-12-22T04:59:52.148Z,5.60
2018-12-22T05:02:20.658Z,2.27
2018-12-22T05:04:49.118Z,2.63
2018-12-22T05:07:17.741Z,2.37
2018-12-22T05:09:46.073Z,3.93
2018-12-22T05:12:14.593Z,3.37
2018-12-22T05:14:43.054Z,2.10
2018-12-22T05:17:11.330Z,3.80
2018-12-22T05:19:39.589Z,3.40
2018-12-22T05:22:07.889Z,3.07
2018-12-22T05:24:36.453Z,1.97
2018-12-22T05:27:04.962Z,1.47
2018-12-22T05:29:33.945Z,2.50
2018-12-22T05:32:02.445Z,3.57
2018-12-22T05:34:30.909Z,2.57
2018-12-22T05:36:59.908Z,3.00
2018-12-22T05:39:28.273Z,1.53
2018-12-22T05:41:56.873Z,2.87
2018-12-22T05:44:25.142Z,2.03
2018-12-22T05:46:53.437Z,1.37
2018-12-22T05:49:21.805Z,1.80
2018-12-22T05:51:50.301Z,2.10
2018-12-22T05:54:18.545Z,0.80
2018-12-22T05:56:46.818Z,1.30
2018-12-22T05:59:15.198Z,2.40
2018-12-22T06:01:43.709Z,1.70
2018-12-22T06:04:12.156Z,1.33
2018-12-22T06:06:40.661Z,1.17
2018-12-22T06:09:09.129Z,1.67
2018-12-22T06:11:37.609Z,2.33
2018-12-22T06:14:06.105Z,2.37
2018-12-22T06:16:34.609Z,2.03
2018-12-22T06:19:02.877Z,1.00
2018-12-22T06:21:31.177Z,2.43
2018-12-22T06:23:59.581Z,2.27
2018-12-22T06:26:27.925Z,1.20
2018-12-22T06:28:56.997Z,1.20
2018-12-22T06:31:25.461Z,2.33
2018-12-22T06:33:53.741Z,1.03
2018-12-22T06:36:22.018Z,1.97
2018-12-22T06:38:50.417Z,1.83
2018-12-22T06:41:18.687Z,2.37
2018-12-22T06:43:46.965Z,1.57
2018-12-22T06:46:15.342Z,1.93
2018-12-22T06:48:43.841Z,2.00
2018-12-22T06:51:12.133Z,1.63
2018-12-22T06:53:42.006Z,2.50
2018-12-22T06:56:10.748Z,2.80
2018-12-22T06:58:39.010Z,2.70
2018-12-22T07:01:07.269Z,1.10
2018-12-22T07:03:35.590Z,2.60
2018-12-22T07:06:03.858Z,3.57
2018-12-22T07:08:32.137Z,1.67
2018-12-22T07:11:00.405Z,1.70
2018-12-22T07:13:28.697Z,1.80
2018-12-22T07:15:56.961Z,3.07
2018-12-22T07:18:25.354Z,2.03
2018-12-22T07:20:53.605Z,4.70
2018-12-22T07:23:21.909Z,4.07
2018-12-22T07:25:50.161Z,2.50
2018-12-22T07:28:18.452Z,3.17
2018-12-22T07:30:46.717Z,3.30
2018-12-22T07:33:15.482Z,3.57
2018-12-22T07:35:43.754Z,3.20
2018-12-22T07:38:12.366Z,2.43
2018-12-22T07:40:40.911Z,0.80
2018-12-22T07:43:09.390Z,3.33
2018-12-22T07:45:37.681Z,3.20
2018-12-22T07:48:06.353Z,3.73
2018-12-22T07:50:34.853Z,1.83
2018-12-22T07:53:03.118Z,3.33
2018-12-22T07:55:31.817Z,2.10
2018-12-22T07:58:00.406Z,2.10
2018-12-22T08:00:34.865Z,3.77
2018-12-22T08:02:59.235Z,1.53
2018-12-22T08:05:27.533Z,1.67
2018-12-22T08:07:56.245Z,3.30
2018-12-22T08:10:24.762Z,2.27
2018-12-22T08:12:53.537Z,1.83
2018-12-22T08:15:22.238Z,2.13
2018-12-22T08:17:50.706Z,2.60
2018-12-22T08:20:19.001Z,4.03
2018-12-22T08:22:47.676Z,3.33
2018-12-22T08:25:15.954Z,2.80
2018-12-22T08:27:44.341Z,4.20
2018-12-22T08:30:12.766Z,2.90
2018-12-22T08:32:41.051Z,3.73
2018-12-22T08:35:10.092Z,3.30
2018-12-22T08:37:38.345Z,3.73
2018-12-22T08:40:08.603Z,2.57
2018-12-22T08:42:37.057Z,2.43
2018-12-22T08:45:07.093Z,3.80
2018-12-22T08:47:35.354Z,2.30
2018-12-22T08:50:09.031Z,2.53
2018-12-22T08:52:34.275Z,1.87
2018-12-22T08:55:02.545Z,4.47
2018-12-22T08:57:30.797Z,4.23
2018-12-22T08:59:59.084Z,6.47
2018-12-22T09:02:27.461Z,5.13
2018-12-22T09:04:55.741Z,5.97
2018-12-22T09:07:24.433Z,6.43
2018-12-22T09:09:52.757Z,4.53
2018-12-22T09:12:21.017Z,3.67
2018-12-22T09:14:49.357Z,3.20
2018-12-22T09:17:17.872Z,3.00
2018-12-22T09:19:46.355Z,3.40
2018-12-22T09:22:14.833Z,4.10
2018-12-22T09:24:43.294Z,5.23
2018-12-22T09:27:11.786Z,5.03
2018-12-22T09:29:40.245Z,3.30
2018-12-22T09:32:08.885Z,4.13
2018-12-22T09:34:37.732Z,5.23
2018-12-22T09:37:06.976Z,4.40
2018-12-22T09:39:35.721Z,3.10
2018-12-22T09:42:04.137Z,3.57
2018-12-22T09:44:32.389Z,4.50
2018-12-22T09:47:00.653Z,7.23
2018-12-22T09:49:28.913Z,6.17
2018-12-22T09:51:57.176Z,6.30
2018-12-22T09:54:25.437Z,13.30
2018-12-22T09:56:53.817Z,3.93
2018-12-22T09:59:22.094Z,6.00
2018-12-22T10:01:50.996Z,6.10
2018-12-22T10:04:19.265Z,7.90
2018-12-22T10:06:48.017Z,4.80
2018-12-22T10:09:16.469Z,3.47
2018-12-22T10:11:45.145Z,3.67
2018-12-22T10:14:13.442Z,3.63
2018-12-22T10:16:41.745Z,4.73
2018-12-22T10:19:10.019Z,6.00
2018-12-22T10:21:38.322Z,5.17
2018-12-22T10:24:06.613Z,4.40
2018-12-22T10:26:34.902Z,5.53
2018-12-22T10:29:03.182Z,4.67
2018-12-22T10:31:31.785Z,4.23
2018-12-22T10:34:00.289Z,7.50
2018-12-22T10:36:28.757Z,4.37
2018-12-22T10:38:57.259Z,6.30
2018-12-22T10:41:25.524Z,5.07
2018-12-22T10:43:53.802Z,4.63
2018-12-22T10:46:22.166Z,8.00
2018-12-22T10:48:50.458Z,5.53
2018-12-22T10:51:24.277Z,3.77
2018-12-22T10:53:49.689Z,8.77
2018-12-22T10:56:17.969Z,2.37
2018-12-22T10:58:46.661Z,3.20
2018-12-22T11:01:15.112Z,3.17
2018-12-22T11:03:43.926Z,2.03
2018-12-22T11:06:12.256Z,4.93
2018-12-22T11:08:41.086Z,3.93
2018-12-22T11:11:09.553Z,7.97
2018-12-22T11:13:37.854Z,4.40
2018-12-22T11:16:06.137Z,3.50
2018-12-22T11:18:34.509Z,6.00
2018-12-22T11:21:02.773Z,4.47
2018-12-22T11:23:31.081Z,6.10
2018-12-22T11:25:59.481Z,4.77
2018-12-22T11:28:27.917Z,2.77
2018-12-22T11:30:57.397Z,4.80
2018-12-22T11:33:25.669Z,6.57
2018-12-22T11:35:53.925Z,6.90
2018-12-22T11:38:22.226Z,3.63
2018-12-22T11:40:50.805Z,1.53
2018-12-22T11:43:19.197Z,4.10
2018-12-22T11:45:47.968Z,4.97
2018-12-22T11:48:24.645Z,3.20
2018-12-22T11:50:52.957Z,4.93
2018-12-22T11:53:21.225Z,5.67
2018-12-22T11:55:49.929Z,3.07
2018-12-22T11:58:18.201Z,4.63
2018-12-22T12:00:46.485Z,4.20
2018-12-22T12:03:15.862Z,3.73
2018-12-22T12:05:44.301Z,8.30
2018-12-22T12:08:13.842Z,3.33
2018-12-22T12:10:42.130Z,4.70
2018-12-22T12:13:10.393Z,4.40
2018-12-22T12:15:48.405Z,4.33
2018-12-22T12:18:52.021Z,4.47
2018-12-22T12:21:20.337Z,4.10
2018-12-22T12:23:48.593Z,6.77
2018-12-22T12:26:17.349Z,4.40
2018-12-22T12:28:45.638Z,3.97
2018-12-22T12:31:14.233Z,2.87
2018-12-22T12:33:42.505Z,5.57
2018-12-22T12:36:11.201Z,5.53
2018-12-22T12:38:40.223Z,7.70
2018-12-22T12:41:08.493Z,5.43
2018-12-22T12:43:36.765Z,4.67
2018-12-22T12:46:05.658Z,6.27
2018-12-22T12:48:34.218Z,4.40
2018-12-22T12:51:02.614Z,2.87
2018-12-22T12:53:30.883Z,2.67
2018-12-22T12:55:59.569Z,4.10
2018-12-22T12:58:27.837Z,4.07
2018-12-22T13:00:56.529Z,5.10
2018-12-22T13:03:24.993Z,4.77
2018-12-22T13:05:53.613Z,6.27
2018-12-22T13:08:22.446Z,5.63
2018-12-22T13:10:50.713Z,6.43
2018-12-22T13:13:30.449Z,5.77
2018-12-22T13:15:58.717Z,5.50
2018-12-22T13:18:26.979Z,3.33
2018-12-22T13:20:55.241Z,4.87
2018-12-22T13:23:23.522Z,4.40
2018-12-22T13:25:51.858Z,5.03
2018-12-22T13:28:20.557Z,3.60
2018-12-22T13:30:48.818Z,3.83
2018-12-22T13:33:18.175Z,3.47
2018-12-22T13:35:47.017Z,4.23
2018-12-22T13:38:15.297Z,2.90
2018-12-22T13:40:43.965Z,3.20
2018-12-22T13:43:12.263Z,3.97
2018-12-22T13:45:40.961Z,7.83
2018-12-22T13:48:09.622Z,8.17
2018-12-22T13:50:38.682Z,13.47
2018-12-22T13:53:07.451Z,9.87
2018-12-22T13:55:35.729Z,6.43
2018-12-22T13:58:04.005Z,3.43
2018-12-22T14:00:36.046Z,5.10
2018-12-22T14:03:05.634Z,3.63
2018-12-22T14:05:34.958Z,5.43
2018-12-22T14:08:03.464Z,3.73
2018-12-22T14:10:31.930Z,4.87
2018-12-22T14:13:00.437Z,4.43
2018-12-22T14:15:29.401Z,5.07
2018-12-22T14:18:07.403Z,4.97
2018-12-22T14:20:36.629Z,3.70
2018-12-22T14:23:04.929Z,3.60
2018-12-22T14:25:33.183Z,2.13
2018-12-22T14:28:01.582Z,3.53
2018-12-22T14:30:30.015Z,5.77
2018-12-22T14:32:58.315Z,2.20
2018-12-22T14:35:36.199Z,2.77
2018-12-22T14:38:04.709Z,4.23
2018-12-22T14:40:32.976Z,5.73
2018-12-22T14:43:01.249Z,3.43
2018-12-22T14:45:29.626Z,3.17
2018-12-22T14:47:58.117Z,4.20
2018-12-22T14:50:26.484Z,3.97
2018-12-22T14:52:55.069Z,3.97
2018-12-22T14:55:23.540Z,4.20
2018-12-22T14:57:55.621Z,5.30
2018-12-22T15:00:23.894Z,6.60
2018-12-22T15:02:52.155Z,4.73
2018-12-22T15:05:21.069Z,6.23
2018-12-22T15:07:49.537Z,5.47
2018-12-22T15:10:17.815Z,2.67
2018-12-22T15:12:46.066Z,3.77
2018-12-22T15:15:14.447Z,5.83
2018-12-22T15:17:43.065Z,2.77
2018-12-22T15:20:15.340Z,6.50
2018-12-22T15:22:43.634Z,5.70
2018-12-22T15:25:12.474Z,5.47
2018-12-22T15:27:40.909Z,7.07
2018-12-22T15:30:12.037Z,4.03
2018-12-22T15:32:44.563Z,4.13
2018-12-22T15:35:10.790Z,4.27
2018-12-22T15:37:39.037Z,3.67
2018-12-22T15:40:07.794Z,5.10
2018-12-22T15:42:36.189Z,2.87
2018-12-22T15:45:05.597Z,3.97
2018-12-22T15:47:33.849Z,6.00
2018-12-22T15:50:02.449Z,5.20
2018-12-22T15:52:30.734Z,3.63
2018-12-22T15:54:59.021Z,3.47
2018-12-22T15:57:27.285Z,5.90
2018-12-22T15:59:55.850Z,3.10
2018-12-22T16:02:24.129Z,6.83
2018-12-22T16:04:52.805Z,5.57
2018-12-22T16:07:22.066Z,6.43
2018-12-22T16:09:50.786Z,5.57
2018-12-22T16:12:19.285Z,4.80
2018-12-22T16:14:47.585Z,6.70
2018-12-22T16:17:16.271Z,6.17
2018-12-22T16:19:44.549Z,4.23
2018-12-22T16:22:12.854Z,4.73
2018-12-22T16:24:41.130Z,6.60
2018-12-22T16:27:09.429Z,6.63
2018-12-22T16:29:40.691Z,4.97
2018-12-22T16:32:09.321Z,5.93
2018-12-22T16:34:37.601Z,5.30
2018-12-22T16:37:06.010Z,5.73
2018-12-22T16:39:34.277Z,5.77
2018-12-22T16:42:02.633Z,3.43
2018-12-22T16:44:30.910Z,7.90
2018-12-22T16:46:59.181Z,5.67
2018-12-22T16:49:27.533Z,6.90
2018-12-22T16:51:56.011Z,5.40
2018-12-22T16:54:24.298Z,3.83
2018-12-22T16:56:52.958Z,8.10
2018-12-22T16:59:21.902Z,4.73
2018-12-22T17:01:54.042Z,7.90
2018-12-22T17:04:22.325Z,5.57
2018-12-22T17:06:50.981Z,8.63
2018-12-22T17:09:19.278Z,4.73
2018-12-22T17:11:47.969Z,5.40
2018-12-22T17:14:16.303Z,7.57
2018-12-22T17:16:46.276Z,8.87
2018-12-22T17:19:14.956Z,8.63
2018-12-22T17:21:49.973Z,5.70
2018-12-22T17:24:24.209Z,6.27
2018-12-22T17:26:52.481Z,5.27
2018-12-22T17:29:23.379Z,6.77
2018-12-22T17:31:52.849Z,9.23
2018-12-22T17:34:22.304Z,7.33
2018-12-22T17:36:51.321Z,7.07
2018-12-22T17:39:19.733Z,6.80
2018-12-22T17:41:48.689Z,5.80
2018-12-22T17:44:16.958Z,5.80
2018-12-22T17:46:45.238Z,8.43
2018-12-22T17:49:17.808Z,9.20
2018-12-22T17:51:47.503Z,6.17
2018-12-22T17:54:16.950Z,6.87
2018-12-22T17:56:45.282Z,7.87
2018-12-22T17:59:13.534Z,4.93
2018-12-22T18:01:41.817Z,6.40
2018-12-22T18:04:10.074Z,8.53
2018-12-22T18:06:38.361Z,4.53
2018-12-22T18:09:07.297Z,6.33
2018-12-22T18:11:35.809Z,4.97
2018-12-22T18:14:04.087Z,4.67
2018-12-22T18:16:32.361Z,8.80
2018-12-22T18:19:00.622Z,6.87
2018-12-22T18:21:28.922Z,7.27
2018-12-22T18:23:57.197Z,5.37
2018-12-22T18:26:25.481Z,6.37
2018-12-22T18:28:53.928Z,6.33
2018-12-22T18:31:22.425Z,6.33
2018-12-22T18:33:50.696Z,5.77
2018-12-22T18:36:20.304Z,6.53
2018-12-22T18:38:49.403Z,11.50
2018-12-22T18:41:17.725Z,9.10
2018-12-22T18:43:46.012Z,6.37
2018-12-22T18:46:14.277Z,7.80
2018-12-22T18:48:42.593Z,7.03
2018-12-22T18:51:10.938Z,5.60
2018-12-22T18:53:39.251Z,11.37
2018-12-22T18:56:07.530Z,8.37
2018-12-22T18:58:35.809Z,7.63
2018-12-22T19:01:04.290Z,4.47
2018-12-22T19:03:32.574Z,4.47
2018-12-22T19:06:01.209Z,3.97
2018-12-22T19:08:30.179Z,6.97
2018-12-22T19:11:02.698Z,8.07
2018-12-22T19:13:31.236Z,8.00
2018-12-22T19:15:59.773Z,7.43
2018-12-22T19:18:28.195Z,5.77
2018-12-22T19:20:56.657Z,8.30
2018-12-22T19:23:26.310Z,6.27
2018-12-22T19:25:54.597Z,6.50
2018-12-22T19:28:23.489Z,7.43
2018-12-22T19:30:51.778Z,6.10
2018-12-22T19:33:20.203Z,9.90
2018-12-22T19:35:48.569Z,7.67
2018-12-22T19:38:17.346Z,8.30
2018-12-22T19:40:46.461Z,7.63
2018-12-22T19:43:14.765Z,8.70
2018-12-22T19:45:43.028Z,5.87
2018-12-22T19:48:11.350Z,5.27
2018-12-22T19:50:39.985Z,5.10
2018-12-22T19:53:09.580Z,8.83
2018-12-22T19:55:38.094Z,8.17
2018-12-22T19:58:06.461Z,5.43
2018-12-22T20:00:34.759Z,10.37
2018-12-22T20:03:04.419Z,7.13
2018-12-22T20:05:32.941Z,6.17
2018-12-22T20:08:05.470Z,4.57
2018-12-22T20:10:34.384Z,7.13
2018-12-22T20:13:06.218Z,7.90
2018-12-22T20:15:35.387Z,6.47
2018-12-22T20:18:06.718Z,5.27
2018-12-22T20:20:38.123Z,8.60
2018-12-22T20:23:07.270Z,6.77
2018-12-22T20:25:36.772Z,6.27
2018-12-22T20:28:06.001Z,7.07
2018-12-22T20:30:34.397Z,8.63
2018-12-22T20:33:03.677Z,13.23
2018-12-22T20:35:33.758Z,5.73
2018-12-22T20:38:07.590Z,6.73
2018-12-22T20:40:36.593Z,7.47
2018-12-22T20:43:07.384Z,7.93
2018-12-22T20:45:40.280Z,9.43
2018-12-22T20:48:09.040Z,5.27
2018-12-22T20:50:38.399Z,7.97
2018-12-22T20:53:07.450Z,8.97
2018-12-22T20:55:38.445Z,7.03
2018-12-22T20:58:06.868Z,7.50
2018-12-22T21:00:35.170Z,13.17
2018-12-22T21:03:03.469Z,6.57
2018-12-22T21:05:36.385Z,7.40
2018-12-22T21:08:07.997Z,9.17
2018-12-22T21:10:36.982Z,10.70
2018-12-22T21:13:06.506Z,6.63
2018-12-22T21:15:35.432Z,8.43
2018-12-22T21:18:04.178Z,8.20
2018-12-22T21:20:32.751Z,8.60
2018-12-22T21:23:01.993Z,8.07
2018-12-22T21:25:31.733Z,7.53
2018-12-22T21:28:00.601Z,5.47
2018-12-22T21:30:30.565Z,7.67
2018-12-22T21:32:59.233Z,12.73
2018-12-22T21:35:28.375Z,6.70
2018-12-22T21:37:56.657Z,7.53
2018-12-22T21:40:25.597Z,8.83
2018-12-22T21:42:55.065Z,10.37
2018-12-22T21:45:24.149Z,9.10
2018-12-22T21:47:53.593Z,7.07
2018-12-22T21:50:22.766Z,6.83
2018-12-22T21:52:54.254Z,8.67
2018-12-22T21:55:22.992Z,11.00
2018-12-22T21:57:52.986Z,8.53
2018-12-22T22:00:23.072Z,7.27
2018-12-22T22:02:52.380Z,8.63
2018-12-22T22:05:20.841Z,6.17
2018-12-22T22:07:50.213Z,9.43
2018-12-22T22:10:18.465Z,9.43
2018-12-22T22:12:47.002Z,9.73
2018-12-22T22:15:15.421Z,9.73
2018-12-22T22:17:43.909Z,8.20
2018-12-22T22:20:12.714Z,7.03
2018-12-22T22:22:42.665Z,11.60
2018-12-22T22:25:11.289Z,11.73
2018-12-22T22:27:40.929Z,10.93
2018-12-22T22:30:09.288Z,8.40
2018-12-22T22:32:41.173Z,9.30
2018-12-22T22:35:10.117Z,5.43
2018-12-22T22:37:39.416Z,5.50
2018-12-22T22:40:08.701Z,6.70
2018-12-22T22:42:38.689Z,10.67
2018-12-22T22:45:07.129Z,10.60
2018-12-22T22:47:36.343Z,10.03
2018-12-22T22:50:05.256Z,9.50
2018-12-22T22:52:33.658Z,7.00
2018-12-22T22:55:02.642Z,7.87
2018-12-22T22:57:31.336Z,9.73
2018-12-22T23:00:00.336Z,8.53
2018-12-22T23:02:29.390Z,14.23
2018-12-22T23:04:58.232Z,11.17
2018-12-22T23:07:26.717Z,7.83
2018-12-22T23:09:55.833Z,13.80
2018-12-22T23:12:24.102Z,7.03
2018-12-22T23:14:52.381Z,9.77
2018-12-22T23:17:20.654Z,9.73
2018-12-22T23:19:48.949Z,9.77
2018-12-22T23:22:17.234Z,10.80
2018-12-22T23:24:45.742Z,11.43
2018-12-22T23:27:14.193Z,11.30
2018-12-22T23:29:42.498Z,11.33
2018-12-22T23:32:10.800Z,11.73
2018-12-22T23:34:39.660Z,6.77
2018-12-22T23:37:07.927Z,10.60
2018-12-22T23:39:36.626Z,6.37
2018-12-22T23:42:05.464Z,8.10
2018-12-22T23:44:34.096Z,10.63
2018-12-22T23:47:02.554Z,5.87
2018-12-22T23:49:31.081Z,10.77
2018-12-22T23:51:59.341Z,13.80
2018-12-22T23:54:27.613Z,6.80
2018-12-22T23:56:55.997Z,8.33
2018-12-22T23:59:24.290Z,8.10
